• Join FlightAware (Why Join?)
  • Login
  • US Flag 
07:25PM EDT


 

Airport Tracker/Info


-or-


 

Live Flight TrackerFlight Track Log ✈ PDT4129 ✈ 28-Apr-2013 ✈ KPGV - KCLT

Flight Track Log - Related Links

Times and Time Zones

All times are in EDT time to prevent confusion due to time zone crossing. See the PDT4129 flight status page for this flight to view local times or setup timezone preferences in your user account.

Time Position Orientation Groundspeed Altitude Reporting Facility
EDT Latitude Longitude Course Direction KTS MPH feet Rate Location/Type
07:01AM 35.6361 -77.3453 287° West 27 31 12,000  Level Washington Center
07:02AM 35.7211 -77.3856 339° North 109 125 2,100 -2,760 Descending Washington Center
07:03AM 35.6667 -77.5835 281° West  Level FlightAware Approximate
07:04AM 35.6793 -77.6466 284° West  Level FlightAware Approximate
07:04AM 35.7358 -77.5086 278° West 256 295 3,900  Level Washington Center
07:05AM 35.6833 -77.7133 270° West  Level FlightAware Approximate
07:05AM 35.7433 -77.5703 279° West 221 254 4,900  Level Washington Center
07:06AM 35.6986 -77.7778 287° West  Level FlightAware Approximate
07:06AM 35.7486 -77.6317 276° West 195 224 5,900  Level Washington Center
07:07AM 35.7147 -77.8422 287° West  Level FlightAware Approximate
07:07AM 35.7536 -77.6958 276° West 190 219 6,800  Level Washington Center
07:08AM 35.7631 -77.7575 281° West 190 219 7,800 840 Climbing Washington Center
07:09AM 35.7681 -77.8167 276° West 185 213 8,500 720 Climbing Washington Center
07:10AM 35.7753 -77.8808 278° West 180 207 9,300 660 Climbing Washington Center
07:11AM 35.7844 -77.9425 280° West 180 207 9,900 300 Climbing Washington Center
07:12AM 35.7914 -78.0144 277° West 193 222 9,900  Level Washington Center
07:12AM 35.7981 -78.0992 276° West 242 278 10,000  Climbing Washington Center
07:14AM 35.8067 -78.1839 277° West 244 281 10,000  Level Washington Center
07:15AM 35.8175 -78.2586 280° West 243 280 10,000  Level Washington Center
07:16AM 35.8114 -78.3531 265° West 246 283 10,000  Level Washington Center
07:17AM 35.8181 -78.4250 277° West 243 280 10,000  Level Washington Center
07:17AM 35.8181 -78.5097 270° West 248 285 10,000  Level Washington Center
07:19AM 35.8158 -78.5942 268° West 253 291 10,000  Level Washington Center
07:19AM 35.8114 -78.6861 267° West 247 284 10,000  Level Washington Center
07:21AM 35.8092 -78.7783 268° West 251 289 10,000  Level Washington Center
07:22AM 35.8131 -78.8628 273° West 249 287 10,000  Level Washington Center
07:23AM 35.8150 -78.9425 272° West 242 278 10,000  Level Washington Center
07:24AM 35.8128 -79.0217 268° West 238 274 10,000  Level Washington Center
07:25AM 35.8144 -79.1036 271° West 237 273 10,000 -120 Level Washington Center
07:26AM 35.8150 -79.1809 271° West  Level FlightAware Approximate
07:33AM 35.8004 -79.7222 270° West  Level FlightAware Approximate
07:34AM 35.8005 -79.7994 270° West  Level FlightAware Approximate
07:35AM 35.8006 -79.8767 270° West  Level FlightAware Approximate
07:36AM 35.8007 -79.9539 270° West  Level FlightAware Approximate
07:37AM 35.8007 -80.0312 270° West  Level FlightAware Approximate
07:37AM 35.7719 -80.0997 211° Southwest 243 280 8,500  Level Atlanta Center
07:38AM 35.8007 -80.1084 270° West  Level FlightAware Approximate
07:38AM 35.7653 -80.1564 262° West 243 280 7,800  Level Atlanta Center
07:39AM 35.8006 -80.1857 270° West  Level FlightAware Approximate
07:39AM 35.7597 -80.2436 266° West 246 283 6,700  Level Atlanta Center
07:40AM 35.8004 -80.2629 270° West  Level FlightAware Approximate
07:40AM 35.7539 -80.3283 265° West 252 290 6,000  Level Atlanta Center
07:41AM 35.8002 -80.3402 270° West  Level FlightAware Approximate
07:41AM 35.7481 -80.4131 265° West 247 284 6,000  Level Atlanta Center
07:42AM 35.8000 -80.4174 270° West  Level FlightAware Approximate
07:42AM 35.7358 -80.4956 260° West 241 277 6,000  Level Atlanta Center
07:43AM 35.7603 -80.4632 211° Southwest  Level FlightAware Approximate
07:43AM 35.7067 -80.5633 242° Southwest 237 273 6,000  Level Atlanta Center
07:44AM 35.6775 -80.6411 245° Southwest 236 272 6,000  Level Atlanta Center
07:45AM 35.6525 -80.7164 248° West 237 273 6,000 -180 Level Atlanta Center
07:46AM 35.6294 -80.7914 249° West 234 269 5,700 -660 Descending Atlanta Center
07:47AM 35.6064 -80.8639 249° West 234 269 4,700 -840 Descending Atlanta Center
07:48AM 35.5769 -80.9442 246° West 235 270 4,000 -360 Descending Atlanta Center
07:49AM 35.5214 -80.9742 204° Southwest 213 245 4,000  Level Atlanta Center
07:50AM 35.4653 -80.9764 182° South 192 221 4,000  Level Atlanta Center
07:51AM 35.4233 -80.9753 179° South 139 160 4,000 -180 Level Atlanta Center
07:52AM 35.3794 -80.9694 174° South 141 162 3,700 -600 Descending Atlanta Center
07:53AM 35.3375 -80.9658 176° South 153 176 2,900 -840 Descending Atlanta Center